sensor_id;sensor_type;location;lat;lon;timestamp;P1;durP1;ratioP1;P2;durP2;ratioP2
27505;SDS011;14939;43.596;1.320;2023-01-04T00:00:58;171.48;;;50.58;;
27505;SDS011;14939;43.596;1.320;2023-01-04T00:03:31;183.10;;;54.80;;
27505;SDS011;14939;43.596;1.320;2023-01-04T00:05:57;178.68;;;56.75;;
27505;SDS011;14939;43.596;1.320;2023-01-04T00:08:24;157.80;;;56.42;;
27505;SDS011;14939;43.596;1.320;2023-01-04T00:10:49;153.18;;;54.97;;
27505;SDS011;14939;43.596;1.320;2023-01-04T00:13:15;179.70;;;55.00;;
27505;SDS011;14939;43.596;1.320;2023-01-04T00:15:41;303.13;;;61.97;;
27505;SDS011;14939;43.596;1.320;2023-01-04T00:18:07;156.88;;;50.53;;
27505;SDS011;14939;43.596;1.320;2023-01-04T00:20:32;159.75;;;49.63;;
27505;SDS011;14939;43.596;1.320;2023-01-04T00:22:58;169.02;;;50.85;;
27505;SDS011;14939;43.596;1.320;2023-01-04T00:25:24;139.15;;;52.25;;
27505;SDS011;14939;43.596;1.320;2023-01-04T00:27:50;136.43;;;49.83;;
27505;SDS011;14939;43.596;1.320;2023-01-04T00:30:16;216.90;;;52.53;;
27505;SDS011;14939;43.596;1.320;2023-01-04T00:32:42;190.60;;;51.80;;
27505;SDS011;14939;43.596;1.320;2023-01-04T00:35:08;195.57;;;52.03;;
27505;SDS011;14939;43.596;1.320;2023-01-04T00:37:34;150.85;;;50.72;;
27505;SDS011;14939;43.596;1.320;2023-01-04T00:40:00;158.65;;;49.17;;
27505;SDS011;14939;43.596;1.320;2023-01-04T00:42:26;142.48;;;51.80;;
27505;SDS011;14939;43.596;1.320;2023-01-04T00:44:51;131.07;;;52.38;;
27505;SDS011;14939;43.596;1.320;2023-01-04T00:47:17;122.93;;;53.20;;
27505;SDS011;14939;43.596;1.320;2023-01-04T00:49:43;132.95;;;53.92;;
27505;SDS011;14939;43.596;1.320;2023-01-04T00:52:08;119.15;;;54.50;;
27505;SDS011;14939;43.596;1.320;2023-01-04T00:54:34;127.55;;;52.80;;
27505;SDS011;14939;43.596;1.320;2023-01-04T00:57:00;123.10;;;56.53;;
27505;SDS011;14939;43.596;1.320;2023-01-04T00:59:26;113.78;;;58.05;;
27505;SDS011;14939;43.596;1.320;2023-01-04T01:01:52;97.32;;;48.60;;
27505;SDS011;14939;43.596;1.320;2023-01-04T01:04:19;98.20;;;44.17;;
27505;SDS011;14939;43.596;1.320;2023-01-04T01:06:47;92.93;;;43.55;;
27505;SDS011;14939;43.596;1.320;2023-01-04T01:09:13;84.53;;;39.65;;
27505;SDS011;14939;43.596;1.320;2023-01-04T01:11:39;88.82;;;39.38;;
27505;SDS011;14939;43.596;1.320;2023-01-04T01:14:06;95.80;;;35.35;;
27505;SDS011;14939;43.596;1.320;2023-01-04T01:16:33;72.15;;;33.55;;
27505;SDS011;14939;43.596;1.320;2023-01-04T01:18:59;70.88;;;27.98;;
27505;SDS011;14939;43.596;1.320;2023-01-04T01:21:25;56.55;;;26.17;;
27505;SDS011;14939;43.596;1.320;2023-01-04T01:23:53;55.13;;;25.48;;
27505;SDS011;14939;43.596;1.320;2023-01-04T01:26:21;63.95;;;24.83;;
27505;SDS011;14939;43.596;1.320;2023-01-04T01:28:48;65.20;;;24.15;;
27505;SDS011;14939;43.596;1.320;2023-01-04T01:31:21;58.72;;;22.33;;
27505;SDS011;14939;43.596;1.320;2023-01-04T01:33:49;57.35;;;22.15;;
27505;SDS011;14939;43.596;1.320;2023-01-04T01:36:17;65.95;;;22.98;;
27505;SDS011;14939;43.596;1.320;2023-01-04T01:38:44;58.13;;;22.60;;
27505;SDS011;14939;43.596;1.320;2023-01-04T01:41:15;55.08;;;20.17;;
27505;SDS011;14939;43.596;1.320;2023-01-04T01:46:16;63.53;;;22.83;;
27505;SDS011;14939;43.596;1.320;2023-01-04T01:48:47;67.10;;;22.75;;
27505;SDS011;14939;43.596;1.320;2023-01-04T01:51:16;67.47;;;22.35;;
27505;SDS011;14939;43.596;1.320;2023-01-04T01:53:43;57.13;;;22.23;;
27505;SDS011;14939;43.596;1.320;2023-01-04T01:56:14;75.63;;;26.90;;
27505;SDS011;14939;43.596;1.320;2023-01-04T01:58:43;83.85;;;25.08;;
27505;SDS011;14939;43.596;1.320;2023-01-04T02:01:13;81.43;;;25.15;;
27505;SDS011;14939;43.596;1.320;2023-01-04T02:03:39;69.90;;;25.85;;
27505;SDS011;14939;43.596;1.320;2023-01-04T02:06:07;90.03;;;26.80;;
27505;SDS011;14939;43.596;1.320;2023-01-04T02:08:48;80.53;;;24.35;;
27505;SDS011;14939;43.596;1.320;2023-01-04T02:11:13;65.32;;;26.75;;
27505;SDS011;14939;43.596;1.320;2023-01-04T02:13:39;64.95;;;25.13;;
27505;SDS011;14939;43.596;1.320;2023-01-04T02:19:06;65.30;;;24.33;;
27505;SDS011;14939;43.596;1.320;2023-01-04T02:38:56;74.45;;;24.75;;
27505;SDS011;14939;43.596;1.320;2023-01-04T02:44:18;100.50;;;26.60;;
27505;SDS011;14939;43.596;1.320;2023-01-04T02:47:15;117.43;;;28.30;;
27505;SDS011;14939;43.596;1.320;2023-01-04T02:50:15;125.28;;;27.05;;
27505;SDS011;14939;43.596;1.320;2023-01-04T02:52:55;211.75;;;26.95;;
27505;SDS011;14939;43.596;1.320;2023-01-04T02:55:25;141.82;;;22.98;;
27505;SDS011;14939;43.596;1.320;2023-01-04T03:07:33;86.50;;;19.00;;
27505;SDS011;14939;43.596;1.320;2023-01-04T03:15:56;101.82;;;17.42;;
27505;SDS011;14939;43.596;1.320;2023-01-04T03:18:31;60.13;;;16.67;;
27505;SDS011;14939;43.596;1.320;2023-01-04T03:21:00;76.35;;;17.63;;
27505;SDS011;14939;43.596;1.320;2023-01-04T03:23:29;72.72;;;17.80;;
27505;SDS011;14939;43.596;1.320;2023-01-04T03:26:28;66.47;;;18.42;;
27505;SDS011;14939;43.596;1.320;2023-01-04T03:32:03;126.85;;;20.15;;
27505;SDS011;14939;43.596;1.320;2023-01-04T03:34:52;78.63;;;19.35;;
27505;SDS011;14939;43.596;1.320;2023-01-04T03:37:52;95.25;;;21.00;;
27505;SDS011;14939;43.596;1.320;2023-01-04T03:41:30;167.98;;;23.23;;
27505;SDS011;14939;43.596;1.320;2023-01-04T03:44:23;80.55;;;17.33;;
27505;SDS011;14939;43.596;1.320;2023-01-04T03:47:48;87.85;;;21.80;;
27505;SDS011;14939;43.596;1.320;2023-01-04T03:50:43;77.65;;;21.20;;
27505;SDS011;14939;43.596;1.320;2023-01-04T03:53:12;53.53;;;20.52;;
27505;SDS011;14939;43.596;1.320;2023-01-04T03:55:38;115.13;;;22.75;;
27505;SDS011;14939;43.596;1.320;2023-01-04T03:58:07;47.90;;;19.33;;
27505;SDS011;14939;43.596;1.320;2023-01-04T04:00:33;62.92;;;20.67;;
27505;SDS011;14939;43.596;1.320;2023-01-04T04:02:59;66.28;;;20.00;;
27505;SDS011;14939;43.596;1.320;2023-01-04T04:08:20;45.90;;;21.25;;
27505;SDS011;14939;43.596;1.320;2023-01-04T04:10:58;39.55;;;20.20;;
27505;SDS011;14939;43.596;1.320;2023-01-04T04:13:45;28.65;;;19.05;;
27505;SDS011;14939;43.596;1.320;2023-01-04T04:16:11;33.40;;;20.45;;
27505;SDS011;14939;43.596;1.320;2023-01-04T04:18:37;30.45;;;19.70;;
27505;SDS011;14939;43.596;1.320;2023-01-04T04:21:03;27.50;;;18.95;;
27505;SDS011;14939;43.596;1.320;2023-01-04T04:23:28;49.50;;;19.42;;
27505;SDS011;14939;43.596;1.320;2023-01-04T04:25:54;25.90;;;18.23;;
27505;SDS011;14939;43.596;1.320;2023-01-04T04:28:20;38.78;;;18.27;;
27505;SDS011;14939;43.596;1.320;2023-01-04T04:30:49;46.67;;;18.33;;
27505;SDS011;14939;43.596;1.320;2023-01-04T04:33:15;49.17;;;19.42;;
27505;SDS011;14939;43.596;1.320;2023-01-04T04:35:40;50.47;;;19.10;;
27505;SDS011;14939;43.596;1.320;2023-01-04T04:38:06;47.92;;;18.85;;
27505;SDS011;14939;43.596;1.320;2023-01-04T04:40:32;63.45;;;19.55;;
27505;SDS011;14939;43.596;1.320;2023-01-04T04:43:16;82.95;;;20.10;;
27505;SDS011;14939;43.596;1.320;2023-01-04T04:45:42;38.70;;;19.23;;
27505;SDS011;14939;43.596;1.320;2023-01-04T04:48:07;57.50;;;18.35;;
27505;SDS011;14939;43.596;1.320;2023-01-04T04:50:33;98.95;;;20.15;;
27505;SDS011;14939;43.596;1.320;2023-01-04T04:52:59;64.30;;;18.67;;
27505;SDS011;14939;43.596;1.320;2023-01-04T04:55:25;37.80;;;17.50;;
27505;SDS011;14939;43.596;1.320;2023-01-04T04:57:50;45.63;;;17.60;;
27505;SDS011;14939;43.596;1.320;2023-01-04T05:00:16;40.83;;;18.45;;
27505;SDS011;14939;43.596;1.320;2023-01-04T05:02:42;31.65;;;17.27;;
27505;SDS011;14939;43.596;1.320;2023-01-04T05:05:07;36.13;;;19.35;;
27505;SDS011;14939;43.596;1.320;2023-01-04T05:07:33;38.92;;;17.58;;
27505;SDS011;14939;43.596;1.320;2023-01-04T05:09:59;38.00;;;16.73;;
27505;SDS011;14939;43.596;1.320;2023-01-04T05:12:25;66.03;;;17.27;;
27505;SDS011;14939;43.596;1.320;2023-01-04T05:15:09;49.45;;;16.52;;
27505;SDS011;14939;43.596;1.320;2023-01-04T05:17:35;76.75;;;17.23;;
27505;SDS011;14939;43.596;1.320;2023-01-04T05:20:01;49.88;;;15.82;;
27505;SDS011;14939;43.596;1.320;2023-01-04T05:22:26;57.55;;;16.33;;
27505;SDS011;14939;43.596;1.320;2023-01-04T05:24:52;42.00;;;16.63;;
27505;SDS011;14939;43.596;1.320;2023-01-04T05:27:18;46.33;;;16.15;;
27505;SDS011;14939;43.596;1.320;2023-01-04T05:29:44;34.13;;;15.40;;
27505;SDS011;14939;43.596;1.320;2023-01-04T05:32:28;65.85;;;15.98;;
27505;SDS011;14939;43.596;1.320;2023-01-04T05:34:53;38.58;;;16.13;;
27505;SDS011;14939;43.596;1.320;2023-01-04T05:37:19;35.90;;;15.55;;
27505;SDS011;14939;43.596;1.320;2023-01-04T05:39:45;37.28;;;16.27;;
27505;SDS011;14939;43.596;1.320;2023-01-04T05:42:10;39.08;;;16.67;;
27505;SDS011;14939;43.596;1.320;2023-01-04T05:44:55;27.17;;;16.15;;
27505;SDS011;14939;43.596;1.320;2023-01-04T05:47:23;44.00;;;17.52;;
27505;SDS011;14939;43.596;1.320;2023-01-04T05:49:50;136.50;;;20.00;;
27505;SDS011;14939;43.596;1.320;2023-01-04T05:52:16;35.33;;;16.42;;
27505;SDS011;14939;43.596;1.320;2023-01-04T05:54:43;30.58;;;17.50;;
27505;SDS011;14939;43.596;1.320;2023-01-04T05:57:08;38.60;;;18.02;;
27505;SDS011;14939;43.596;1.320;2023-01-04T05:59:34;36.33;;;17.55;;
27505;SDS011;14939;43.596;1.320;2023-01-04T06:02:01;34.45;;;17.73;;
27505;SDS011;14939;43.596;1.320;2023-01-04T06:04:26;32.58;;;18.48;;
27505;SDS011;14939;43.596;1.320;2023-01-04T06:06:52;29.67;;;18.05;;
27505;SDS011;14939;43.596;1.320;2023-01-04T06:09:18;27.45;;;18.75;;
27505;SDS011;14939;43.596;1.320;2023-01-04T06:11:44;41.90;;;19.70;;
27505;SDS011;14939;43.596;1.320;2023-01-04T06:14:09;72.95;;;22.42;;
27505;SDS011;14939;43.596;1.320;2023-01-04T06:16:35;51.78;;;18.90;;
27505;SDS011;14939;43.596;1.320;2023-01-04T06:19:01;50.42;;;18.80;;
27505;SDS011;14939;43.596;1.320;2023-01-04T06:21:27;103.13;;;18.92;;
27505;SDS011;14939;43.596;1.320;2023-01-04T06:23:53;113.38;;;21.38;;
27505;SDS011;14939;43.596;1.320;2023-01-04T06:26:18;134.82;;;22.55;;
27505;SDS011;14939;43.596;1.320;2023-01-04T06:28:45;94.78;;;20.98;;
27505;SDS011;14939;43.596;1.320;2023-01-04T06:31:11;120.10;;;22.45;;
27505;SDS011;14939;43.596;1.320;2023-01-04T06:33:37;101.63;;;22.05;;
27505;SDS011;14939;43.596;1.320;2023-01-04T06:36:04;72.43;;;20.63;;
27505;SDS011;14939;43.596;1.320;2023-01-04T06:38:30;94.68;;;21.52;;
27505;SDS011;14939;43.596;1.320;2023-01-04T06:40:57;67.70;;;21.25;;
27505;SDS011;14939;43.596;1.320;2023-01-04T06:43:22;107.43;;;23.02;;
27505;SDS011;14939;43.596;1.320;2023-01-04T06:45:48;144.57;;;21.23;;
27505;SDS011;14939;43.596;1.320;2023-01-04T06:48:14;72.70;;;20.52;;
27505;SDS011;14939;43.596;1.320;2023-01-04T06:50:40;64.78;;;20.20;;
27505;SDS011;14939;43.596;1.320;2023-01-04T06:53:06;69.00;;;20.75;;
27505;SDS011;14939;43.596;1.320;2023-01-04T06:55:32;100.82;;;21.58;;
27505;SDS011;14939;43.596;1.320;2023-01-04T06:57:57;58.03;;;19.77;;
27505;SDS011;14939;43.596;1.320;2023-01-04T07:00:23;47.28;;;20.63;;
27505;SDS011;14939;43.596;1.320;2023-01-04T07:02:49;112.97;;;23.48;;
27505;SDS011;14939;43.596;1.320;2023-01-04T07:05:15;50.58;;;20.23;;
27505;SDS011;14939;43.596;1.320;2023-01-04T07:07:41;86.10;;;21.77;;
27505;SDS011;14939;43.596;1.320;2023-01-04T07:10:07;68.80;;;21.67;;
27505;SDS011;14939;43.596;1.320;2023-01-04T07:12:33;59.10;;;22.67;;
27505;SDS011;14939;43.596;1.320;2023-01-04T07:14:59;76.28;;;22.45;;
27505;SDS011;14939;43.596;1.320;2023-01-04T07:17:25;71.53;;;23.58;;
27505;SDS011;14939;43.596;1.320;2023-01-04T07:19:51;65.80;;;20.35;;
27505;SDS011;14939;43.596;1.320;2023-01-04T07:22:17;45.88;;;18.70;;
27505;SDS011;14939;43.596;1.320;2023-01-04T07:24:42;45.70;;;20.15;;
27505;SDS011;14939;43.596;1.320;2023-01-04T07:27:11;39.13;;;21.42;;
27505;SDS011;14939;43.596;1.320;2023-01-04T07:29:37;75.53;;;19.13;;
27505;SDS011;14939;43.596;1.320;2023-01-04T07:32:03;29.70;;;17.67;;
27505;SDS011;14939;43.596;1.320;2023-01-04T07:34:29;36.03;;;17.20;;
27505;SDS011;14939;43.596;1.320;2023-01-04T07:36:55;26.98;;;15.18;;
27505;SDS011;14939;43.596;1.320;2023-01-04T07:39:21;29.10;;;16.17;;
27505;SDS011;14939;43.596;1.320;2023-01-04T07:41:47;39.17;;;16.70;;
27505;SDS011;14939;43.596;1.320;2023-01-04T07:44:14;37.22;;;17.63;;
27505;SDS011;14939;43.596;1.320;2023-01-04T07:46:42;43.10;;;18.45;;
27505;SDS011;14939;43.596;1.320;2023-01-04T07:49:11;62.53;;;18.55;;
27505;SDS011;14939;43.596;1.320;2023-01-04T07:51:38;68.53;;;19.60;;
27505;SDS011;14939;43.596;1.320;2023-01-04T07:54:04;45.40;;;16.73;;
27505;SDS011;14939;43.596;1.320;2023-01-04T07:56:30;34.85;;;15.60;;
27505;SDS011;14939;43.596;1.320;2023-01-04T07:58:56;39.78;;;16.63;;
27505;SDS011;14939;43.596;1.320;2023-01-04T08:01:24;49.58;;;16.63;;
27505;SDS011;14939;43.596;1.320;2023-01-04T08:03:51;37.60;;;16.38;;
27505;SDS011;14939;43.596;1.320;2023-01-04T08:06:18;35.90;;;14.60;;
27505;SDS011;14939;43.596;1.320;2023-01-04T08:08:45;27.80;;;14.57;;
27505;SDS011;14939;43.596;1.320;2023-01-04T08:11:12;38.58;;;14.43;;
27505;SDS011;14939;43.596;1.320;2023-01-04T08:13:43;44.63;;;13.70;;
27505;SDS011;14939;43.596;1.320;2023-01-04T08:16:42;17.88;;;13.38;;
27505;SDS011;14939;43.596;1.320;2023-01-04T08:19:13;20.83;;;13.43;;
27505;SDS011;14939;43.596;1.320;2023-01-04T08:21:40;46.08;;;17.02;;
27505;SDS011;14939;43.596;1.320;2023-01-04T08:24:08;30.90;;;15.75;;
27505;SDS011;14939;43.596;1.320;2023-01-04T08:26:36;35.45;;;16.50;;
27505;SDS011;14939;43.596;1.320;2023-01-04T08:29:01;52.45;;;17.88;;
27505;SDS011;14939;43.596;1.320;2023-01-04T08:31:28;37.40;;;17.40;;
27505;SDS011;14939;43.596;1.320;2023-01-04T08:33:56;28.70;;;17.45;;
27505;SDS011;14939;43.596;1.320;2023-01-04T08:38:48;74.78;;;20.35;;
27505;SDS011;14939;43.596;1.320;2023-01-04T08:41:15;34.83;;;18.85;;
27505;SDS011;14939;43.596;1.320;2023-01-04T08:43:42;55.50;;;19.77;;
27505;SDS011;14939;43.596;1.320;2023-01-04T08:46:08;43.33;;;19.77;;
27505;SDS011;14939;43.596;1.320;2023-01-04T08:48:35;52.05;;;19.83;;
27505;SDS011;14939;43.596;1.320;2023-01-04T08:51:02;37.63;;;18.63;;
27505;SDS011;14939;43.596;1.320;2023-01-04T08:53:30;40.20;;;18.17;;
27505;SDS011;14939;43.596;1.320;2023-01-04T08:55:56;27.45;;;16.13;;
27505;SDS011;14939;43.596;1.320;2023-01-04T08:58:24;27.02;;;17.25;;
27505;SDS011;14939;43.596;1.320;2023-01-04T09:00:51;30.05;;;18.25;;
27505;SDS011;14939;43.596;1.320;2023-01-04T09:03:20;31.00;;;17.08;;
27505;SDS011;14939;43.596;1.320;2023-01-04T09:05:45;27.85;;;17.85;;
27505;SDS011;14939;43.596;1.320;2023-01-04T09:08:11;54.78;;;19.50;;
27505;SDS011;14939;43.596;1.320;2023-01-04T09:10:37;40.50;;;18.15;;
27505;SDS011;14939;43.596;1.320;2023-01-04T09:13:04;30.92;;;17.70;;
27505;SDS011;14939;43.596;1.320;2023-01-04T09:15:31;32.28;;;18.33;;
27505;SDS011;14939;43.596;1.320;2023-01-04T09:17:57;26.27;;;17.42;;
27505;SDS011;14939;43.596;1.320;2023-01-04T09:20:23;28.40;;;17.88;;
27505;SDS011;14939;43.596;1.320;2023-01-04T09:22:49;31.10;;;19.27;;
27505;SDS011;14939;43.596;1.320;2023-01-04T09:25:14;32.60;;;19.95;;
27505;SDS011;14939;43.596;1.320;2023-01-04T09:27:40;29.25;;;18.85;;
27505;SDS011;14939;43.596;1.320;2023-01-04T09:30:06;28.55;;;18.92;;
27505;SDS011;14939;43.596;1.320;2023-01-04T09:32:32;24.98;;;16.92;;
27505;SDS011;14939;43.596;1.320;2023-01-04T09:34:58;25.27;;;16.35;;
27505;SDS011;14939;43.596;1.320;2023-01-04T09:37:23;22.70;;;16.50;;
27505;SDS011;14939;43.596;1.320;2023-01-04T09:39:49;28.27;;;17.15;;
27505;SDS011;14939;43.596;1.320;2023-01-04T09:42:29;26.25;;;16.50;;
27505;SDS011;14939;43.596;1.320;2023-01-04T09:45:33;26.75;;;18.50;;
27505;SDS011;14939;43.596;1.320;2023-01-04T09:50:24;23.83;;;14.68;;
27505;SDS011;14939;43.596;1.320;2023-01-04T09:53:17;27.52;;;18.67;;
27505;SDS011;14939;43.596;1.320;2023-01-04T09:55:52;26.38;;;18.60;;
27505;SDS011;14939;43.596;1.320;2023-01-04T09:58:30;26.88;;;18.55;;
27505;SDS011;14939;43.596;1.320;2023-01-04T10:01:10;30.70;;;19.25;;
27505;SDS011;14939;43.596;1.320;2023-01-04T10:03:54;27.73;;;18.20;;
27505;SDS011;14939;43.596;1.320;2023-01-04T10:06:28;26.77;;;17.63;;
27505;SDS011;14939;43.596;1.320;2023-01-04T10:08:56;31.00;;;17.85;;
27505;SDS011;14939;43.596;1.320;2023-01-04T10:14:43;35.90;;;21.17;;
27505;SDS011;14939;43.596;1.320;2023-01-04T10:25:43;33.42;;;19.23;;
27505;SDS011;14939;43.596;1.320;2023-01-04T10:31:14;149.05;;;23.85;;
27505;SDS011;14939;43.596;1.320;2023-01-04T10:33:51;35.55;;;22.65;;
27505;SDS011;14939;43.596;1.320;2023-01-04T10:36:29;299.90;;;26.98;;
27505;SDS011;14939;43.596;1.320;2023-01-04T10:39:02;70.68;;;24.23;;
27505;SDS011;14939;43.596;1.320;2023-01-04T10:41:32;103.90;;;23.63;;
27505;SDS011;14939;43.596;1.320;2023-01-04T10:47:14;34.00;;;22.88;;
27505;SDS011;14939;43.596;1.320;2023-01-04T10:52:17;41.72;;;27.38;;
27505;SDS011;14939;43.596;1.320;2023-01-04T10:54:57;38.72;;;25.80;;
27505;SDS011;14939;43.596;1.320;2023-01-04T10:57:25;37.97;;;25.27;;
27505;SDS011;14939;43.596;1.320;2023-01-04T10:59:59;39.22;;;25.88;;
27505;SDS011;14939;43.596;1.320;2023-01-04T11:02:34;37.88;;;24.73;;
27505;SDS011;14939;43.596;1.320;2023-01-04T11:05:24;35.08;;;23.90;;
27505;SDS011;14939;43.596;1.320;2023-01-04T11:10:29;27.70;;;19.95;;
27505;SDS011;14939;43.596;1.320;2023-01-04T11:13:07;26.25;;;18.58;;
27505;SDS011;14939;43.596;1.320;2023-01-04T11:15:33;28.90;;;20.50;;
27505;SDS011;14939;43.596;1.320;2023-01-04T11:18:00;27.33;;;20.52;;
27505;SDS011;14939;43.596;1.320;2023-01-04T11:20:29;27.40;;;20.23;;
27505;SDS011;14939;43.596;1.320;2023-01-04T11:25:48;30.48;;;21.05;;
27505;SDS011;14939;43.596;1.320;2023-01-04T11:39:05;40.35;;;24.05;;
27505;SDS011;14939;43.596;1.320;2023-01-04T11:41:56;41.58;;;26.55;;
27505;SDS011;14939;43.596;1.320;2023-01-04T11:44:22;36.60;;;24.73;;
27505;SDS011;14939;43.596;1.320;2023-01-04T11:49:39;44.05;;;27.45;;
27505;SDS011;14939;43.596;1.320;2023-01-04T11:52:05;49.13;;;28.65;;
27505;SDS011;14939;43.596;1.320;2023-01-04T11:54:32;46.60;;;29.80;;
27505;SDS011;14939;43.596;1.320;2023-01-04T11:57:04;50.95;;;32.17;;
27505;SDS011;14939;43.596;1.320;2023-01-04T11:59:41;50.67;;;32.15;;
27505;SDS011;14939;43.596;1.320;2023-01-04T12:02:23;54.35;;;34.97;;
27505;SDS011;14939;43.596;1.320;2023-01-04T12:04:51;53.03;;;33.08;;
27505;SDS011;14939;43.596;1.320;2023-01-04T12:07:33;47.60;;;32.05;;
27505;SDS011;14939;43.596;1.320;2023-01-04T12:10:00;49.92;;;31.25;;
27505;SDS011;14939;43.596;1.320;2023-01-04T12:12:39;49.70;;;32.13;;
27505;SDS011;14939;43.596;1.320;2023-01-04T12:15:12;45.90;;;29.40;;
27505;SDS011;14939;43.596;1.320;2023-01-04T12:20:15;41.80;;;26.58;;
27505;SDS011;14939;43.596;1.320;2023-01-04T12:22:42;48.05;;;30.80;;
27505;SDS011;14939;43.596;1.320;2023-01-04T12:28:03;50.22;;;31.90;;
27505;SDS011;14939;43.596;1.320;2023-01-04T12:32:58;47.97;;;31.58;;
27505;SDS011;14939;43.596;1.320;2023-01-04T12:38:55;52.40;;;32.50;;
27505;SDS011;14939;43.596;1.320;2023-01-04T12:46:55;46.92;;;32.20;;
27505;SDS011;14939;43.596;1.320;2023-01-04T13:02:27;47.45;;;31.85;;
27505;SDS011;14939;43.596;1.320;2023-01-04T13:05:02;54.95;;;32.35;;
27505;SDS011;14939;43.596;1.320;2023-01-04T13:07:48;45.47;;;30.95;;
27505;SDS011;14939;43.596;1.320;2023-01-04T13:10:18;48.95;;;33.30;;
27505;SDS011;14939;43.596;1.320;2023-01-04T13:21:33;46.33;;;31.25;;
27505;SDS011;14939;43.596;1.320;2023-01-04T13:24:18;47.35;;;31.65;;
27505;SDS011;14939;43.596;1.320;2023-01-04T13:26:53;45.15;;;31.10;;
27505;SDS011;14939;43.596;1.320;2023-01-04T13:34:36;50.63;;;32.28;;
27505;SDS011;14939;43.596;1.320;2023-01-04T13:39:42;46.78;;;30.80;;
27505;SDS011;14939;43.596;1.320;2023-01-04T13:42:15;47.70;;;31.67;;
27505;SDS011;14939;43.596;1.320;2023-01-04T13:47:25;41.55;;;27.40;;
27505;SDS011;14939;43.596;1.320;2023-01-04T13:49:58;44.47;;;29.83;;
27505;SDS011;14939;43.596;1.320;2023-01-04T13:52:27;39.17;;;28.13;;
27505;SDS011;14939;43.596;1.320;2023-01-04T13:55:38;39.22;;;27.52;;
27505;SDS011;14939;43.596;1.320;2023-01-04T13:57:56;38.80;;;26.42;;
27505;SDS011;14939;43.596;1.320;2023-01-04T14:00:24;40.97;;;25.85;;
27505;SDS011;14939;43.596;1.320;2023-01-04T14:03:05;39.60;;;26.95;;
27505;SDS011;14939;43.596;1.320;2023-01-04T14:05:35;37.90;;;25.50;;
27505;SDS011;14939;43.596;1.320;2023-01-04T14:08:02;35.63;;;26.55;;
27505;SDS011;14939;43.596;1.320;2023-01-04T14:10:34;36.00;;;23.85;;
27505;SDS011;14939;43.596;1.320;2023-01-04T14:13:01;38.33;;;26.15;;
27505;SDS011;14939;43.596;1.320;2023-01-04T14:15:28;34.97;;;25.58;;
27505;SDS011;14939;43.596;1.320;2023-01-04T14:17:57;34.08;;;24.90;;
27505;SDS011;14939;43.596;1.320;2023-01-04T14:20:34;41.08;;;25.50;;
27505;SDS011;14939;43.596;1.320;2023-01-04T14:23:00;32.50;;;24.63;;
27505;SDS011;14939;43.596;1.320;2023-01-04T14:30:49;32.00;;;23.25;;
27505;SDS011;14939;43.596;1.320;2023-01-04T14:38:43;32.35;;;23.17;;
27505;SDS011;14939;43.596;1.320;2023-01-04T14:43:51;32.13;;;23.77;;
27505;SDS011;14939;43.596;1.320;2023-01-04T14:46:28;33.65;;;23.17;;
27505;SDS011;14939;43.596;1.320;2023-01-04T14:48:55;34.55;;;23.02;;
27505;SDS011;14939;43.596;1.320;2023-01-04T14:51:23;34.80;;;23.75;;
27505;SDS011;14939;43.596;1.320;2023-01-04T14:54:13;29.58;;;21.52;;
27505;SDS011;14939;43.596;1.320;2023-01-04T14:56:40;33.53;;;22.13;;
27505;SDS011;14939;43.596;1.320;2023-01-04T14:59:07;28.02;;;21.65;;
27505;SDS011;14939;43.596;1.320;2023-01-04T15:01:33;34.45;;;22.50;;
27505;SDS011;14939;43.596;1.320;2023-01-04T15:04:00;32.95;;;22.48;;
27505;SDS011;14939;43.596;1.320;2023-01-04T15:06:26;33.88;;;22.58;;
27505;SDS011;14939;43.596;1.320;2023-01-04T15:08:52;30.60;;;21.60;;
27505;SDS011;14939;43.596;1.320;2023-01-04T15:11:18;32.03;;;22.30;;
27505;SDS011;14939;43.596;1.320;2023-01-04T15:13:44;27.70;;;21.15;;
27505;SDS011;14939;43.596;1.320;2023-01-04T15:16:10;29.17;;;21.88;;
27505;SDS011;14939;43.596;1.320;2023-01-04T15:18:38;32.28;;;22.35;;
27505;SDS011;14939;43.596;1.320;2023-01-04T15:21:04;32.83;;;21.70;;
27505;SDS011;14939;43.596;1.320;2023-01-04T15:23:30;32.95;;;21.35;;
27505;SDS011;14939;43.596;1.320;2023-01-04T15:25:56;28.73;;;20.67;;
27505;SDS011;14939;43.596;1.320;2023-01-04T15:28:25;27.58;;;20.85;;
27505;SDS011;14939;43.596;1.320;2023-01-04T15:30:51;30.02;;;21.17;;
27505;SDS011;14939;43.596;1.320;2023-01-04T15:33:17;29.42;;;20.88;;
27505;SDS011;14939;43.596;1.320;2023-01-04T15:35:44;28.05;;;20.75;;
27505;SDS011;14939;43.596;1.320;2023-01-04T15:38:09;30.20;;;21.33;;
27505;SDS011;14939;43.596;1.320;2023-01-04T15:40:35;30.90;;;20.50;;
27505;SDS011;14939;43.596;1.320;2023-01-04T15:43:01;27.30;;;20.33;;
27505;SDS011;14939;43.596;1.320;2023-01-04T15:47:53;39.00;;;26.23;;
27505;SDS011;14939;43.596;1.320;2023-01-04T15:50:27;31.83;;;21.92;;
27505;SDS011;14939;43.596;1.320;2023-01-04T15:52:54;30.17;;;22.92;;
27505;SDS011;14939;43.596;1.320;2023-01-04T15:55:21;34.78;;;22.88;;
27505;SDS011;14939;43.596;1.320;2023-01-04T15:57:47;32.17;;;22.52;;
27505;SDS011;14939;43.596;1.320;2023-01-04T16:00:13;35.58;;;22.45;;
27505;SDS011;14939;43.596;1.320;2023-01-04T16:02:39;30.92;;;22.73;;
27505;SDS011;14939;43.596;1.320;2023-01-04T16:05:05;32.72;;;23.00;;
27505;SDS011;14939;43.596;1.320;2023-01-04T16:07:31;37.25;;;23.48;;
27505;SDS011;14939;43.596;1.320;2023-01-04T16:09:57;35.47;;;24.10;;
27505;SDS011;14939;43.596;1.320;2023-01-04T16:12:23;38.03;;;24.48;;
27505;SDS011;14939;43.596;1.320;2023-01-04T16:17:37;36.40;;;25.15;;
27505;SDS011;14939;43.596;1.320;2023-01-04T16:20:04;35.92;;;24.70;;
27505;SDS011;14939;43.596;1.320;2023-01-04T16:22:30;34.75;;;24.92;;
27505;SDS011;14939;43.596;1.320;2023-01-04T16:24:56;37.78;;;26.25;;
27505;SDS011;14939;43.596;1.320;2023-01-04T16:27:22;41.75;;;27.45;;
27505;SDS011;14939;43.596;1.320;2023-01-04T16:29:48;154.38;;;68.65;;
27505;SDS011;14939;43.596;1.320;2023-01-04T16:32:16;57.40;;;33.53;;
27505;SDS011;14939;43.596;1.320;2023-01-04T16:34:42;48.65;;;29.73;;
27505;SDS011;14939;43.596;1.320;2023-01-04T16:37:08;46.65;;;30.30;;
27505;SDS011;14939;43.596;1.320;2023-01-04T16:39:34;43.63;;;29.48;;
27505;SDS011;14939;43.596;1.320;2023-01-04T16:41:59;49.05;;;32.00;;
27505;SDS011;14939;43.596;1.320;2023-01-04T16:44:25;44.05;;;31.23;;
27505;SDS011;14939;43.596;1.320;2023-01-04T16:46:51;45.22;;;31.38;;
27505;SDS011;14939;43.596;1.320;2023-01-04T16:49:16;49.65;;;32.65;;
27505;SDS011;14939;43.596;1.320;2023-01-04T16:51:43;47.17;;;32.58;;
27505;SDS011;14939;43.596;1.320;2023-01-04T16:54:14;47.58;;;33.25;;
27505;SDS011;14939;43.596;1.320;2023-01-04T16:56:41;56.25;;;37.47;;
27505;SDS011;14939;43.596;1.320;2023-01-04T16:59:15;54.78;;;37.35;;
27505;SDS011;14939;43.596;1.320;2023-01-04T17:01:42;57.50;;;38.45;;
27505;SDS011;14939;43.596;1.320;2023-01-04T17:04:09;55.95;;;37.20;;
27505;SDS011;14939;43.596;1.320;2023-01-04T17:06:37;58.47;;;37.55;;
27505;SDS011;14939;43.596;1.320;2023-01-04T17:09:04;56.10;;;37.30;;
27505;SDS011;14939;43.596;1.320;2023-01-04T17:11:32;63.70;;;38.08;;
27505;SDS011;14939;43.596;1.320;2023-01-04T17:14:00;56.78;;;37.90;;